Time;durP1;ratioP1;P1;durP2;ratioP2;P2;SDS_P1;SDS_P2;PMS_P1;PMS_P2;Temp;Humidity;BMP_temperature;BMP_pressure;BME280_temperature;BME280_humidity;BME280_pressure;Samples;Min_cycle;Max_cycle;Signal;HPM_P1;HPM_P2
2023/03/07 00:00:23;;;;;;;9.33;9.03;;;2.60;99.90;;;;;;5061930;28;20248;-82
2023/03/07 00:02:51;;;;;;;9.40;9.10;;;2.60;99.90;;;;;;5062186;28;20237;-82
2023/03/07 00:05:19;;;;;;;9.40;9.10;;;2.60;99.90;;;;;;5062539;28;20234;-82
2023/03/07 00:07:48;;;;;;;9.47;9.17;;;2.60;99.90;;;;;;5062049;28;20322;-82
2023/03/07 00:10:29;;;;;;;9.40;9.10;;;2.60;99.90;;;;;;5061079;28;20226;-83
2023/03/07 00:12:56;;;;;;;9.30;9.00;;;2.60;99.90;;;;;;5060958;28;20246;-82
2023/03/07 00:15:25;;;;;;;9.30;9.00;;;2.60;99.90;;;;;;5059639;28;20407;-81
2023/03/07 00:17:56;;;;;;;9.27;8.97;;;2.60;99.90;;;;;;5060404;28;20235;-84
2023/03/07 00:20:23;;;;;;;9.40;9.10;;;2.60;99.90;;;;;;5065985;28;20226;-81
2023/03/07 00:22:53;;;;;;;9.43;9.13;;;2.50;99.90;;;;;;5066859;28;20286;-81
2023/03/07 00:25:25;;;;;;;9.30;9.00;;;2.50;99.90;;;;;;5064430;28;20246;-82
2023/03/07 00:27:53;;;;;;;9.20;8.90;;;2.60;99.90;;;;;;5063026;28;20295;-82
2023/03/07 00:30:24;;;;;;;9.10;8.80;;;2.50;99.90;;;;;;5061059;28;20282;-82
2023/03/07 00:32:51;;;;;;;9.30;9.00;;;2.50;99.90;;;;;;5067296;28;20231;-82
2023/03/07 00:35:22;;;;;;;9.57;9.27;;;2.50;99.90;;;;;;5065417;28;20453;-82
2023/03/07 00:37:52;;;;;;;9.40;9.10;;;2.50;99.90;;;;;;5064459;28;20266;-82
2023/03/07 00:40:20;;;;;;;9.30;9.00;;;2.50;99.90;;;;;;5062397;28;20231;-82
2023/03/07 00:42:51;;;;;;;9.27;8.97;;;2.60;99.90;;;;;;5061986;28;20321;-82
2023/03/07 00:45:18;;;;;;;9.27;8.97;;;2.60;99.90;;;;;;5062428;28;20239;-81
2023/03/07 00:47:48;;;;;;;9.40;9.10;;;2.60;99.90;;;;;;5062083;28;20232;-82
2023/03/07 00:50:19;;;;;;;9.33;9.03;;;2.60;99.90;;;;;;5061471;28;20230;-81
2023/03/07 00:52:49;;;;;;;8.97;8.77;;;2.60;99.90;;;;;;5061633;28;20238;-81
2023/03/07 00:55:16;;;;;;;9.30;9.00;;;2.60;99.90;;;;;;5061319;28;20242;-81
2023/03/07 00:57:45;;;;;;;8.97;8.77;;;2.60;99.90;;;;;;5060982;28;20307;-82
2023/03/07 01:00:25;;;;;;;9.30;9.00;;;2.60;99.90;;;;;;5060545;28;20277;-81
2023/03/07 01:02:53;;;;;;;8.83;8.63;;;2.60;99.90;;;;;;5061277;28;20309;-81
2023/03/07 01:05:23;;;;;;;9.20;8.90;;;2.60;99.90;;;;;;5060736;28;20258;-81
2023/03/07 01:07:52;;;;;;;9.17;8.87;;;2.60;99.90;;;;;;5060711;28;20261;-80
2023/03/07 01:10:22;;;;;;;8.97;8.77;;;2.60;99.90;;;;;;5061835;28;20249;-81
2023/03/07 01:12:51;;;;;;;8.87;8.67;;;2.60;99.90;;;;;;5065045;28;20319;-81
2023/03/07 01:15:23;;;;;;;8.90;8.70;;;2.60;99.90;;;;;;5065741;28;20238;-82
2023/03/07 01:17:51;;;;;;;9.40;9.10;;;2.60;99.90;;;;;;5064075;28;20237;-82
2023/03/07 01:20:19;;;;;;;9.20;8.90;;;2.60;99.90;;;;;;5063065;28;20222;-82
2023/03/07 01:22:48;;;;;;;9.23;8.93;;;2.60;99.90;;;;;;5062847;28;21050;-82
2023/03/07 01:25:18;;;;;;;9.30;9.00;;;2.60;99.90;;;;;;5064245;28;20258;-82
2023/03/07 01:27:47;;;;;;;9.30;9.00;;;2.60;99.90;;;;;;5068762;28;20226;-82
2023/03/07 01:30:16;;;;;;;9.20;8.90;;;2.60;99.90;;;;;;5067756;28;20229;-82
2023/03/07 01:32:47;;;;;;;9.20;8.90;;;2.60;99.90;;;;;;5068034;28;20227;-82
2023/03/07 01:35:15;;;;;;;9.20;8.90;;;2.60;99.90;;;;;;5067470;28;20263;-82
2023/03/07 01:37:45;;;;;;;9.37;9.07;;;2.60;99.90;;;;;;5066886;28;20652;-82
2023/03/07 01:40:14;;;;;;;9.23;8.93;;;2.50;99.90;;;;;;5066971;28;20290;-82
2023/03/07 01:42:44;;;;;;;9.30;9.00;;;2.60;99.90;;;;;;5067391;28;20254;-82
2023/03/07 01:46:04;;;;;;;9.20;8.90;;;2.50;99.90;;;;;;5066001;28;20231;-82
2023/03/07 01:48:36;;;;;;;9.30;9.00;;;2.60;99.90;;;;;;5066105;28;20245;-82
2023/03/07 01:51:05;;;;;;;9.40;9.10;;;2.60;99.90;;;;;;5065826;28;20231;-82
2023/03/07 01:53:36;;;;;;;9.37;9.07;;;2.60;99.90;;;;;;5066320;28;20242;-81
2023/03/07 01:58:51;;;;;;;9.20;8.90;;;2.60;99.90;;;;;;5063362;28;20236;-82
2023/03/07 02:01:23;;;;;;;9.20;8.90;;;2.60;99.90;;;;;;5065338;28;20260;-82
2023/03/07 02:04:01;;;;;;;9.37;9.07;;;2.60;99.90;;;;;;5066421;28;20227;-82
2023/03/07 02:06:31;;;;;;;9.20;8.90;;;2.70;99.90;;;;;;5066508;28;20234;-82
2023/03/07 02:09:00;;;;;;;9.00;8.80;;;2.70;99.90;;;;;;5068963;28;20227;-82
2023/03/07 02:11:29;;;;;;;9.10;8.80;;;2.60;99.90;;;;;;5068587;28;20217;-82
2023/03/07 02:13:59;;;;;;;9.20;8.90;;;2.70;99.90;;;;;;5067610;28;20309;-83
2023/03/07 02:16:29;;;;;;;9.40;9.10;;;2.60;99.90;;;;;;5067100;28;20255;-82
2023/03/07 02:18:59;;;;;;;9.47;9.17;;;2.70;99.90;;;;;;5065543;28;20287;-82
2023/03/07 02:21:39;;;;;;;9.30;9.00;;;2.70;99.90;;;;;;5076922;28;20215;-81
2023/03/07 02:24:25;;;;;;;9.00;8.80;;;2.70;99.90;;;;;;5071608;28;20230;-82
2023/03/07 02:26:54;;;;;;;9.03;8.80;;;2.70;99.90;;;;;;5062420;28;20238;-82
2023/03/07 02:29:22;;;;;;;9.30;9.00;;;2.70;99.90;;;;;;5062704;28;20295;-82
2023/03/07 02:31:51;;;;;;;9.20;8.90;;;2.80;99.90;;;;;;5062718;28;20219;-82
2023/03/07 02:34:29;;;;;;;8.80;8.60;;;2.80;99.90;;;;;;5062675;28;20226;-82
2023/03/07 02:37:01;;;;;;;9.03;8.83;;;2.80;99.90;;;;;;5062076;28;20310;-82
2023/03/07 02:39:29;;;;;;;9.00;8.80;;;2.70;99.90;;;;;;5061750;28;20227;-82
2023/03/07 02:42:07;;;;;;;9.33;9.03;;;2.80;99.90;;;;;;5062205;28;20230;-82
2023/03/07 02:44:36;;;;;;;9.30;9.00;;;2.80;99.90;;;;;;5062401;28;20266;-82
2023/03/07 02:47:07;;;;;;;9.37;9.07;;;2.80;99.90;;;;;;5062869;28;20298;-82
2023/03/07 02:49:35;;;;;;;9.50;9.20;;;2.80;99.90;;;;;;5064595;28;20234;-82
2023/03/07 02:52:04;;;;;;;9.13;8.83;;;2.80;99.90;;;;;;5078666;28;20203;-82
2023/03/07 02:54:35;;;;;;;9.17;8.87;;;2.80;99.90;;;;;;5079532;28;20245;-81
2023/03/07 02:57:12;;;;;;;9.30;9.00;;;2.70;99.90;;;;;;5074997;28;20247;-82
2023/03/07 02:59:41;;;;;;;9.13;8.83;;;2.70;99.90;;;;;;5070695;28;20269;-82
2023/03/07 03:02:10;;;;;;;9.50;9.20;;;2.70;99.90;;;;;;5068699;28;20309;-81
2023/03/07 03:04:40;;;;;;;9.30;9.00;;;2.70;99.90;;;;;;5067038;28;20254;-82
2023/03/07 03:07:09;;;;;;;9.60;9.30;;;2.60;99.90;;;;;;5066123;28;20243;-82
2023/03/07 03:09:40;;;;;;;9.50;9.20;;;2.50;99.90;;;;;;5066076;28;20284;-82
2023/03/07 03:12:10;;;;;;;9.70;9.40;;;2.50;99.90;;;;;;5065921;28;20317;-82
2023/03/07 03:14:38;;;;;;;9.47;9.17;;;2.40;99.90;;;;;;5078625;28;20286;-80
2023/03/07 03:17:07;;;;;;;9.40;9.10;;;2.40;99.90;;;;;;5075655;28;20254;-81
2023/03/07 03:19:36;;;;;;;9.67;9.37;;;2.30;99.90;;;;;;5068353;28;20253;-82
2023/03/07 03:22:06;;;;;;;9.80;9.50;;;2.30;99.90;;;;;;5067480;28;20326;-81
2023/03/07 03:24:35;;;;;;;9.80;9.50;;;2.30;99.90;;;;;;5066055;28;20337;-82
2023/03/07 03:27:04;;;;;;;9.80;9.50;;;2.30;99.90;;;;;;5065754;28;20241;-82
2023/03/07 03:29:39;;;;;;;10.00;9.70;;;2.30;99.90;;;;;;5064661;28;20279;-82
2023/03/07 03:32:15;;;;;;;9.67;9.37;;;2.30;99.90;;;;;;5064674;28;20226;-81
2023/03/07 03:34:43;;;;;;;9.77;9.47;;;2.20;99.90;;;;;;5064470;28;20298;-82
2023/03/07 03:37:11;;;;;;;9.97;9.67;;;2.10;99.90;;;;;;5065081;28;20227;-82
2023/03/07 03:39:40;;;;;;;9.80;9.50;;;2.10;99.90;;;;;;5063824;28;20230;-81
2023/03/07 03:42:10;;;;;;;9.50;9.20;;;2.00;99.90;;;;;;5064122;28;20226;-81
2023/03/07 03:44:43;;;;;;;9.80;9.50;;;2.00;99.90;;;;;;5064204;28;20238;-82
2023/03/07 03:47:11;;;;;;;9.80;9.50;;;2.00;99.90;;;;;;5069918;28;20237;-82
2023/03/07 03:49:38;;;;;;;9.70;9.40;;;2.00;99.90;;;;;;5069484;28;20223;-82
2023/03/07 03:52:08;;;;;;;9.83;9.53;;;2.00;99.90;;;;;;5067671;28;20246;-82
2023/03/07 03:54:37;;;;;;;9.57;9.27;;;2.00;99.90;;;;;;5066140;28;20326;-82
2023/03/07 03:57:06;;;;;;;9.37;9.07;;;2.00;99.90;;;;;;5065681;28;20231;-82
2023/03/07 03:59:36;;;;;;;9.30;9.00;;;2.00;99.90;;;;;;5065231;28;20230;-82
2023/03/07 04:04:54;;;;;;;9.37;9.07;;;2.10;99.90;;;;;;5064728;28;20226;-82
2023/03/07 04:07:27;;;;;;;9.43;9.13;;;2.10;99.90;;;;;;5064443;28;20266;-82
2023/03/07 04:09:55;;;;;;;9.50;9.20;;;2.10;99.90;;;;;;5064489;28;20583;-82
2023/03/07 04:12:22;;;;;;;9.57;9.27;;;2.10;99.90;;;;;;5065034;28;20327;-82
2023/03/07 04:14:56;;;;;;;9.30;9.00;;;2.10;99.90;;;;;;5063898;28;20235;-82
2023/03/07 04:20:13;;;;;;;9.47;9.17;;;2.10;99.90;;;;;;5064129;28;20251;-82
2023/03/07 04:22:41;;;;;;;9.23;8.93;;;2.10;99.90;;;;;;5063931;28;20226;-82
2023/03/07 04:25:11;;;;;;;9.53;9.23;;;2.10;99.90;;;;;;5062971;28;20238;-82
2023/03/07 04:27:38;;;;;;;9.33;9.03;;;2.20;99.90;;;;;;5071700;28;20231;-81
2023/03/07 04:30:07;;;;;;;9.30;9.00;;;2.20;99.90;;;;;;5070522;28;20242;-82
2023/03/07 04:32:41;;;;;;;9.60;9.30;;;2.20;99.90;;;;;;5068830;28;20234;-82
2023/03/07 04:37:52;;;;;;;8.90;8.70;;;2.20;99.90;;;;;;5066470;28;20228;-82
2023/03/07 04:40:22;;;;;;;9.10;8.80;;;2.20;99.90;;;;;;5067320;28;20238;-82
2023/03/07 04:42:53;;;;;;;8.60;8.40;;;2.30;99.90;;;;;;5066276;28;20738;-82
2023/03/07 04:45:21;;;;;;;8.80;8.60;;;2.30;99.90;;;;;;5068229;28;20274;-82
2023/03/07 04:50:36;;;;;;;9.03;8.73;;;2.30;99.90;;;;;;5064677;28;20384;-82
2023/03/07 04:53:07;;;;;;;8.73;8.53;;;2.40;99.90;;;;;;5065016;28;20231;-82
2023/03/07 04:55:36;;;;;;;8.90;8.70;;;2.40;99.90;;;;;;5065044;28;20246;-82
2023/03/07 04:58:09;;;;;;;9.20;8.90;;;2.40;99.90;;;;;;5066930;28;20245;-82
2023/03/07 05:00:37;;;;;;;9.17;8.87;;;2.30;99.90;;;;;;5067334;28;20235;-82
2023/03/07 05:03:13;;;;;;;9.13;8.83;;;2.30;99.90;;;;;;5067325;28;20350;-82
2023/03/07 05:05:42;;;;;;;9.23;8.93;;;2.30;99.90;;;;;;5066804;28;20235;-82
2023/03/07 05:08:12;;;;;;;9.30;9.00;;;2.30;99.90;;;;;;5066971;28;20325;-81
2023/03/07 05:10:41;;;;;;;9.40;9.10;;;2.20;99.90;;;;;;5067944;28;20287;-82
2023/03/07 05:13:11;;;;;;;9.30;9.00;;;2.20;99.90;;;;;;5068119;28;20215;-82
2023/03/07 05:15:40;;;;;;;8.83;8.63;;;2.20;99.90;;;;;;5067005;28;20249;-81
2023/03/07 05:18:19;;;;;;;9.30;9.00;;;2.20;99.90;;;;;;5067423;28;20231;-82
2023/03/07 05:20:47;;;;;;;9.50;9.20;;;2.30;99.90;;;;;;5067240;28;20288;-82
2023/03/07 05:23:19;;;;;;;9.27;8.97;;;2.20;99.90;;;;;;5067707;28;20230;-81
2023/03/07 05:25:47;;;;;;;9.50;9.20;;;2.20;99.90;;;;;;5066860;28;20245;-81
2023/03/07 05:28:16;;;;;;;9.57;9.27;;;2.20;99.90;;;;;;5066563;28;20279;-83
2023/03/07 05:30:45;;;;;;;9.60;9.30;;;2.20;99.90;;;;;;5068414;28;20226;-81
2023/03/07 05:33:27;;;;;;;9.20;8.90;;;2.10;99.90;;;;;;5066501;28;20238;-81
2023/03/07 05:35:55;;;;;;;9.23;8.93;;;2.10;99.90;;;;;;5069068;28;20281;-81
2023/03/07 05:38:23;;;;;;;10.13;9.83;;;2.10;99.90;;;;;;5078628;28;20237;-81
2023/03/07 05:40:52;;;;;;;10.20;9.90;;;2.10;99.90;;;;;;5066186;28;20289;-81
2023/03/07 05:43:22;;;;;;;10.20;9.90;;;2.10;99.90;;;;;;5064918;28;20215;-81
2023/03/07 05:45:52;;;;;;;10.47;10.17;;;2.10;99.90;;;;;;5064686;28;20238;-82
2023/03/07 05:48:23;;;;;;;10.40;10.10;;;2.10;99.90;;;;;;5065582;28;20326;-81
2023/03/07 05:50:52;;;;;;;10.47;10.17;;;2.10;99.90;;;;;;5065001;28;20768;-81
2023/03/07 05:53:20;;;;;;;10.40;10.10;;;2.10;99.90;;;;;;5064574;28;20230;-82
2023/03/07 05:55:49;;;;;;;10.03;9.73;;;2.10;99.90;;;;;;5063304;28;20320;-82
2023/03/07 05:58:17;;;;;;;10.00;9.70;;;2.10;99.90;;;;;;5066923;28;20237;-81
2023/03/07 06:00:49;;;;;;;9.70;9.40;;;2.10;99.90;;;;;;5075978;28;20246;-81
2023/03/07 06:03:19;;;;;;;10.10;9.80;;;2.10;99.90;;;;;;5084229;28;20293;-82
2023/03/07 06:05:51;;;;;;;10.10;9.80;;;2.20;99.90;;;;;;5089724;28;20251;-81
2023/03/07 06:08:19;;;;;;;10.10;9.80;;;2.20;99.90;;;;;;5087963;28;20238;-81
2023/03/07 06:10:50;;;;;;;10.27;9.97;;;2.10;99.90;;;;;;5084442;28;20295;-81
2023/03/07 06:13:27;;;;;;;10.07;9.77;;;2.10;99.90;;;;;;5079959;28;20241;-81
2023/03/07 06:15:55;;;;;;;10.40;10.10;;;2.20;99.90;;;;;;5086297;28;20237;-81
2023/03/07 06:18:26;;;;;;;9.90;9.60;;;2.20;99.90;;;;;;5086724;28;20230;-81
2023/03/07 06:21:03;;;;;;;9.80;9.50;;;2.20;99.90;;;;;;5086278;28;20233;-82
2023/03/07 06:23:32;;;;;;;9.80;9.50;;;2.20;99.90;;;;;;5086601;28;20241;-82
2023/03/07 06:26:04;;;;;;;9.70;9.40;;;2.20;99.90;;;;;;5085818;28;20242;-82
2023/03/07 06:28:31;;;;;;;9.67;9.37;;;2.30;99.90;;;;;;5086795;28;20250;-81
2023/03/07 06:31:01;;;;;;;10.00;9.70;;;2.30;99.90;;;;;;5086333;28;20218;-82
2023/03/07 06:33:30;;;;;;;9.70;9.40;;;2.30;99.90;;;;;;5085215;28;20224;-82
2023/03/07 06:36:08;;;;;;;9.57;9.27;;;2.40;99.90;;;;;;5099299;28;20222;-81
2023/03/07 06:38:37;;;;;;;10.10;9.80;;;2.40;99.90;;;;;;5099533;28;20237;-81
2023/03/07 06:41:08;;;;;;;10.10;9.80;;;2.50;99.90;;;;;;5087290;28;20354;-82
2023/03/07 06:43:36;;;;;;;9.73;9.43;;;2.50;99.90;;;;;;5084511;28;20234;-82
2023/03/07 06:46:07;;;;;;;9.90;9.60;;;2.60;99.90;;;;;;5086478;28;21054;-82
2023/03/07 06:48:35;;;;;;;9.70;9.40;;;2.60;99.90;;;;;;5084710;28;20321;-82
2023/03/07 06:51:14;;;;;;;9.83;9.53;;;2.70;99.90;;;;;;5087213;28;20233;-82
2023/03/07 06:53:43;;;;;;;9.97;9.67;;;2.70;99.90;;;;;;5086860;28;20249;-82
2023/03/07 06:56:12;;;;;;;9.60;9.30;;;2.70;99.90;;;;;;5087597;28;20260;-83
2023/03/07 06:58:42;;;;;;;10.10;9.80;;;2.70;99.90;;;;;;5091109;28;20401;-81
2023/03/07 07:01:17;;;;;;;9.90;9.60;;;2.80;99.90;;;;;;5092971;28;20250;-82
2023/03/07 07:03:50;;;;;;;9.50;9.20;;;2.90;99.90;;;;;;5092901;28;20214;-81
2023/03/07 07:06:21;;;;;;;9.77;9.47;;;3.00;99.90;;;;;;5092199;28;20286;-81
2023/03/07 07:08:49;;;;;;;9.93;9.63;;;3.00;99.90;;;;;;5094535;28;20229;-81
2023/03/07 07:11:18;;;;;;;9.67;9.37;;;3.10;99.90;;;;;;5094318;28;20250;-81
2023/03/07 07:13:47;;;;;;;9.60;9.30;;;3.10;99.90;;;;;;5092461;28;20245;-80
2023/03/07 07:16:16;;;;;;;9.80;9.50;;;3.10;99.90;;;;;;5092481;28;20237;-81
2023/03/07 07:18:44;;;;;;;10.10;9.80;;;3.10;99.90;;;;;;5095662;28;20222;-80
2023/03/07 07:21:12;;;;;;;9.90;9.60;;;3.10;99.90;;;;;;5091841;28;20257;-80
2023/03/07 07:23:45;;;;;;;9.30;9.00;;;3.20;99.90;;;;;;5088718;28;20321;-81
2023/03/07 07:26:12;;;;;;;9.67;9.37;;;3.20;99.90;;;;;;5085557;28;20234;-81
2023/03/07 07:28:41;;;;;;;9.53;9.23;;;3.20;99.90;;;;;;5085624;28;20268;-81
2023/03/07 07:31:08;;;;;;;9.67;9.37;;;3.30;99.90;;;;;;5084774;28;20225;-80
2023/03/07 07:33:36;;;;;;;9.57;9.27;;;3.30;99.90;;;;;;5093866;28;20282;-80
2023/03/07 07:36:07;;;;;;;9.80;9.50;;;3.30;99.90;;;;;;5096814;28;20253;-80
2023/03/07 07:38:36;;;;;;;9.73;9.43;;;3.40;99.90;;;;;;5096872;28;20214;-79
2023/03/07 07:41:05;;;;;;;9.53;9.23;;;3.40;99.90;;;;;;5095788;28;20263;-80
2023/03/07 07:43:33;;;;;;;9.97;9.67;;;3.50;99.90;;;;;;5096286;28;20230;-80
2023/03/07 07:46:03;;;;;;;9.80;9.50;;;3.50;99.90;;;;;;5097078;28;20233;-80
2023/03/07 07:48:30;;;;;;;9.93;9.63;;;3.50;99.90;;;;;;5096105;28;20229;-80
2023/03/07 07:51:02;;;;;;;9.83;9.53;;;3.50;99.90;;;;;;5096347;28;20319;-81
2023/03/07 07:53:29;;;;;;;10.10;9.80;;;3.60;99.90;;;;;;5094977;28;20265;-81
2023/03/07 07:55:59;;;;;;;9.90;9.60;;;3.60;99.90;;;;;;5095989;28;20264;-82
2023/03/07 07:58:31;;;;;;;9.80;9.50;;;3.60;99.90;;;;;;5098063;28;20269;-82
2023/03/07 08:01:00;;;;;;;10.00;9.70;;;3.70;99.90;;;;;;5098603;28;20222;-79
2023/03/07 08:03:29;;;;;;;10.00;9.70;;;3.70;99.90;;;;;;5098529;28;20273;-80
2023/03/07 08:05:58;;;;;;;9.90;9.60;;;3.70;99.90;;;;;;5098599;28;20233;-80
2023/03/07 08:08:27;;;;;;;9.70;9.40;;;3.80;99.90;;;;;;5098070;28;20286;-80
2023/03/07 08:10:57;;;;;;;9.87;9.57;;;3.80;99.90;;;;;;5097060;28;20318;-82
2023/03/07 08:13:27;;;;;;;9.50;9.20;;;3.90;99.90;;;;;;5095707;28;20230;-81
2023/03/07 08:15:59;;;;;;;9.70;9.40;;;3.90;99.90;;;;;;5096314;28;20225;-82
2023/03/07 08:18:27;;;;;;;9.67;9.37;;;3.90;99.90;;;;;;5096255;28;20298;-81
2023/03/07 08:20:55;;;;;;;9.63;9.33;;;4.00;99.90;;;;;;5095583;28;20253;-79
2023/03/07 08:23:24;;;;;;;9.60;9.30;;;4.00;99.90;;;;;;5096985;28;20218;-79
2023/03/07 08:25:54;;;;;;;9.73;9.43;;;4.00;99.90;;;;;;5097676;28;20226;-79
2023/03/07 08:28:23;;;;;;;9.90;9.60;;;4.10;99.90;;;;;;5089151;28;20229;-80
2023/03/07 08:30:51;;;;;;;9.60;9.30;;;4.10;99.90;;;;;;5089776;28;20252;-80
2023/03/07 08:33:23;;;;;;;9.80;9.50;;;4.10;99.90;;;;;;5095910;28;20249;-79
2023/03/07 08:35:52;;;;;;;9.80;9.50;;;4.10;99.90;;;;;;5090371;28;20238;-79
2023/03/07 08:38:21;;;;;;;9.90;9.60;;;4.10;99.90;;;;;;5091511;28;20279;-80
2023/03/07 08:40:49;;;;;;;9.73;9.43;;;4.20;99.90;;;;;;5092925;28;20234;-79
2023/03/07 08:43:16;;;;;;;9.73;9.43;;;4.20;99.90;;;;;;5084666;28;20253;-78
2023/03/07 08:45:44;;;;;;;9.70;9.40;;;4.20;99.90;;;;;;5083402;28;20264;-78
2023/03/07 08:48:11;;;;;;;9.20;8.90;;;4.30;99.90;;;;;;5064177;28;20258;-79
2023/03/07 08:50:43;;;;;;;9.30;9.00;;;4.30;99.90;;;;;;5064298;28;20333;-80
2023/03/07 08:53:11;;;;;;;9.10;8.80;;;4.30;99.90;;;;;;5064055;28;20317;-79
2023/03/07 08:55:38;;;;;;;9.07;8.80;;;4.40;99.90;;;;;;5063136;28;20249;-81
2023/03/07 08:58:06;;;;;;;8.73;8.53;;;4.50;99.90;;;;;;5062751;28;20260;-79
2023/03/07 09:00:35;;;;;;;9.40;9.10;;;4.50;99.90;;;;;;5064036;28;20273;-81
2023/03/07 09:03:02;;;;;;;9.60;9.30;;;4.50;99.90;;;;;;5063116;28;20254;-79
2023/03/07 09:05:30;;;;;;;9.83;9.53;;;4.50;99.90;;;;;;5062807;28;20322;-78
2023/03/07 09:08:00;;;;;;;9.50;9.20;;;4.60;99.90;;;;;;5062996;28;20227;-78
2023/03/07 09:10:28;;;;;;;9.43;9.13;;;4.60;99.90;;;;;;5063918;28;20261;-79
2023/03/07 09:12:55;;;;;;;9.50;9.20;;;4.70;99.90;;;;;;5064378;28;20682;-79
2023/03/07 09:15:24;;;;;;;9.00;8.80;;;4.70;99.90;;;;;;5063987;28;20751;-79
2023/03/07 09:17:52;;;;;;;9.23;8.93;;;4.80;99.90;;;;;;5062609;28;20242;-79
2023/03/07 09:20:20;;;;;;;9.00;8.73;;;4.80;99.90;;;;;;5063114;28;20234;-79
2023/03/07 09:22:47;;;;;;;9.23;8.93;;;4.80;99.90;;;;;;5063193;28;20258;-80
2023/03/07 09:25:17;;;;;;;8.87;8.67;;;4.90;99.90;;;;;;5062653;28;20270;-79
2023/03/07 09:27:44;;;;;;;9.33;9.03;;;4.80;99.90;;;;;;5062580;28;20317;-78
2023/03/07 09:30:14;;;;;;;9.33;9.03;;;4.80;99.90;;;;;;5063055;28;20230;-79
2023/03/07 09:32:42;;;;;;;9.50;9.20;;;4.90;99.90;;;;;;5063160;28;20283;-79
2023/03/07 09:35:10;;;;;;;9.50;9.20;;;4.90;99.90;;;;;;5062795;28;20253;-79
2023/03/07 09:37:38;;;;;;;9.60;9.30;;;5.00;99.90;;;;;;5062506;28;20334;-79
2023/03/07 09:40:07;;;;;;;9.50;9.20;;;5.00;99.90;;;;;;5065764;28;20237;-79
2023/03/07 09:42:49;;;;;;;9.50;9.20;;;5.00;99.90;;;;;;5066505;28;20215;-81
2023/03/07 09:45:28;;;;;;;9.50;9.20;;;4.90;99.90;;;;;;5071103;28;20240;-79
2023/03/07 09:48:52;;;;;;;9.30;9.00;;;4.90;99.90;;;;;;5067767;28;20263;-79
2023/03/07 09:51:24;;;;;;;9.40;9.10;;;4.90;99.90;;;;;;5055130;28;20235;-79
2023/03/07 09:53:56;;;;;;;9.53;9.23;;;5.00;99.90;;;;;;5064282;28;20254;-79
2023/03/07 09:56:30;;;;;;;9.27;8.97;;;5.10;99.90;;;;;;5063174;28;20400;-80
2023/03/07 09:59:10;;;;;;;9.23;8.93;;;5.10;99.90;;;;;;5062507;28;20241;-79
2023/03/07 10:01:39;;;;;;;9.33;9.03;;;5.10;99.90;;;;;;5061827;28;20282;-79
2023/03/07 10:04:15;;;;;;;9.43;9.13;;;5.20;99.90;;;;;;5061924;28;20231;-79
2023/03/07 10:06:43;;;;;;;9.53;9.23;;;5.30;99.90;;;;;;5062318;28;20230;-79
2023/03/07 10:09:17;;;;;;;9.50;9.20;;;5.40;99.90;;;;;;5061930;28;20252;-79
2023/03/07 10:12:07;;;;;;;9.77;9.47;;;5.50;99.90;;;;;;5063234;28;20223;-79
2023/03/07 10:15:05;;;;;;;9.80;9.50;;;5.60;99.90;;;;;;5064168;28;20239;-80
2023/03/07 10:17:55;;;;;;;9.80;9.50;;;5.70;99.90;;;;;;5064718;28;20254;-79
2023/03/07 10:20:29;;;;;;;9.80;9.50;;;5.70;99.90;;;;;;5075401;28;20282;-78
2023/03/07 10:23:09;;;;;;;9.67;9.37;;;5.70;99.90;;;;;;5094489;28;20214;-78
2023/03/07 10:25:46;;;;;;;9.80;9.50;;;5.90;99.90;;;;;;5072838;28;20326;-79
2023/03/07 10:28:22;;;;;;;9.37;9.07;;;6.10;99.90;;;;;;5063796;28;20230;-78
2023/03/07 10:30:54;;;;;;;9.77;9.47;;;6.40;99.90;;;;;;5063857;28;20222;-82
2023/03/07 10:33:24;;;;;;;9.73;9.43;;;6.60;99.90;;;;;;5075858;28;20286;-80
2023/03/07 10:36:00;;;;;;;9.67;9.37;;;6.80;99.90;;;;;;5085003;28;20226;-80
2023/03/07 10:38:34;;;;;;;9.60;9.30;;;6.80;99.90;;;;;;5083483;28;20237;-81
2023/03/07 10:41:09;;;;;;;9.67;9.37;;;6.70;99.90;;;;;;5084174;28;20268;-82
2023/03/07 10:43:39;;;;;;;9.93;9.63;;;6.60;99.90;;;;;;5083540;28;20233;-80
2023/03/07 10:46:16;;;;;;;9.87;9.57;;;6.60;99.90;;;;;;5083781;28;20230;-81
2023/03/07 10:48:49;;;;;;;9.70;9.40;;;6.80;99.90;;;;;;5083060;28;20316;-81
2023/03/07 10:51:35;;;;;;;9.90;9.60;;;7.00;99.90;;;;;;5078715;28;20266;-80
2023/03/07 10:54:05;;;;;;;10.63;10.33;;;7.00;99.90;;;;;;5062817;28;20258;-81
2023/03/07 10:56:33;;;;;;;10.30;10.00;;;7.00;99.90;;;;;;5062242;28;20241;-81
2023/03/07 10:59:08;;;;;;;10.10;9.80;;;7.00;99.90;;;;;;5063107;28;20270;-82
2023/03/07 11:01:58;;;;;;;9.87;9.57;;;7.00;99.90;;;;;;5063538;28;20260;-82
2023/03/07 11:04:29;;;;;;;10.00;9.70;;;7.10;99.90;;;;;;5063714;28;20235;-82
2023/03/07 11:06:58;;;;;;;9.87;9.57;;;7.20;99.90;;;;;;5054347;28;20238;-80
2023/03/07 11:09:32;;;;;;;10.10;9.80;;;7.30;99.90;;;;;;5064050;28;20238;-80
2023/03/07 11:12:13;;;;;;;9.80;9.50;;;7.40;99.90;;;;;;5070015;28;20318;-81
2023/03/07 11:14:50;;;;;;;9.80;9.50;;;7.30;99.90;;;;;;5061739;28;20263;-81
2023/03/07 11:17:30;;;;;;;9.90;9.60;;;7.10;99.90;;;;;;5069433;28;20258;-79
2023/03/07 11:19:59;;;;;;;9.90;9.60;;;7.20;99.90;;;;;;5079550;28;20235;-79
2023/03/07 11:22:32;;;;;;;10.10;9.80;;;7.10;99.90;;;;;;5061597;28;20319;-82
2023/03/07 11:25:04;;;;;;;9.90;9.60;;;7.00;99.90;;;;;;5056325;28;20234;-83
2023/03/07 11:27:37;;;;;;;9.73;9.43;;;6.90;99.90;;;;;;5077545;28;20217;-81
2023/03/07 11:30:27;;;;;;;9.90;9.60;;;6.80;99.90;;;;;;5081147;28;20218;-81
2023/03/07 11:33:10;;;;;;;9.97;9.67;;;6.70;99.90;;;;;;5084629;28;20290;-83
2023/03/07 11:36:07;;;;;;;9.90;9.60;;;6.80;99.90;;;;;;5084534;28;20265;-83
2023/03/07 11:38:54;;;;;;;10.03;9.73;;;6.90;99.90;;;;;;5081570;28;20218;-84
2023/03/07 11:41:32;;;;;;;10.13;9.83;;;6.90;99.90;;;;;;5081280;28;20325;-81
2023/03/07 11:44:25;;;;;;;10.10;9.80;;;6.90;99.90;;;;;;5082514;28;20260;-83
2023/03/07 11:47:32;;;;;;;10.27;9.97;;;6.90;99.90;;;;;;5080952;28;20233;-82
2023/03/07 11:50:21;;;;;;;10.23;9.93;;;7.00;99.90;;;;;;5080434;28;20277;-84
2023/03/07 11:53:32;;;;;;;10.10;9.80;;;7.00;99.90;;;;;;5083184;28;20230;-83
2023/03/07 11:56:26;;;;;;;10.30;10.00;;;6.90;99.90;;;;;;5060499;28;20321;-85
2023/03/07 11:59:41;;;;;;;10.00;9.70;;;6.80;99.90;;;;;;5050350;28;20231;-84
2023/03/07 12:02:39;;;;;;;9.93;9.63;;;6.70;99.90;;;;;;5068015;28;20226;-82
2023/03/07 12:05:34;;;;;;;9.97;9.67;;;6.60;99.90;;;;;;5061371;28;20233;-84
2023/03/07 12:08:25;;;;;;;10.13;9.83;;;6.60;99.90;;;;;;5061442;28;20699;-83
2023/03/07 12:11:08;;;;;;;10.30;10.00;;;6.50;99.90;;;;;;5060893;28;20258;-81
2023/03/07 12:13:53;;;;;;;10.03;9.73;;;6.50;99.90;;;;;;5065698;28;20262;-81
2023/03/07 12:16:30;;;;;;;10.07;9.77;;;6.50;99.90;;;;;;5077932;28;20244;-80
2023/03/07 12:19:29;;;;;;;10.47;10.17;;;6.40;99.90;;;;;;5090204;28;20230;-80
2023/03/07 12:22:26;;;;;;;9.90;9.60;;;6.30;99.90;;;;;;5085591;28;20292;-81
2023/03/07 12:25:13;;;;;;;9.63;9.33;;;6.30;99.90;;;;;;5082252;28;20237;-81
2023/03/07 12:27:46;;;;;;;9.80;9.50;;;6.20;99.90;;;;;;5080871;28;20234;-79
2023/03/07 12:30:19;;;;;;;10.00;9.70;;;6.10;99.90;;;;;;5081686;28;20229;-83
2023/03/07 12:32:49;;;;;;;10.00;9.70;;;6.20;99.90;;;;;;5081748;28;20234;-82
2023/03/07 12:35:27;;;;;;;9.93;9.63;;;6.10;99.90;;;;;;5083460;28;20266;-82
2023/03/07 12:38:09;;;;;;;10.03;9.73;;;6.00;99.90;;;;;;5081602;28;20230;-83
2023/03/07 12:40:43;;;;;;;9.80;9.50;;;6.00;99.90;;;;;;5080688;28;20263;-82
2023/03/07 12:43:22;;;;;;;9.83;9.53;;;5.90;99.90;;;;;;5080188;28;20308;-82
2023/03/07 12:45:58;;;;;;;9.70;9.40;;;5.90;99.90;;;;;;5080222;28;20229;-82
2023/03/07 12:48:39;;;;;;;9.90;9.60;;;5.90;99.90;;;;;;5080943;28;20328;-81
2023/03/07 12:51:18;;;;;;;9.63;9.33;;;5.80;99.90;;;;;;5080322;28;20324;-83
2023/03/07 12:53:55;;;;;;;9.60;9.30;;;5.80;99.90;;;;;;5080363;28;20290;-83
2023/03/07 12:56:30;;;;;;;9.60;9.30;;;5.70;99.90;;;;;;5076483;28;20236;-78
2023/03/07 12:59:09;;;;;;;9.50;9.20;;;5.70;99.90;;;;;;5051930;28;20236;-81
2023/03/07 13:01:42;;;;;;;9.57;9.27;;;5.70;99.90;;;;;;5064817;28;20246;-81
2023/03/07 13:04:17;;;;;;;9.53;9.23;;;5.60;99.90;;;;;;5067535;28;20289;-81
2023/03/07 13:06:49;;;;;;;9.30;9.00;;;5.60;99.90;;;;;;5062741;28;20226;-81
2023/03/07 13:09:23;;;;;;;8.97;8.77;;;5.70;99.90;;;;;;5061737;28;20330;-79
2023/03/07 13:12:30;;;;;;;9.50;9.20;;;5.70;99.90;;;;;;5061510;28;20313;-82
2023/03/07 13:15:03;;;;;;;9.50;9.20;;;5.60;99.90;;;;;;5060483;28;20223;-81
2023/03/07 13:17:59;;;;;;;9.00;8.80;;;5.60;99.90;;;;;;5060626;28;20250;-80
2023/03/07 13:20:45;;;;;;;8.90;8.70;;;5.60;99.90;;;;;;5064059;28;20291;-82
2023/03/07 13:23:30;;;;;;;9.43;9.13;;;5.60;99.90;;;;;;5068695;28;20251;-82
2023/03/07 13:26:09;;;;;;;9.70;9.40;;;5.60;99.90;;;;;;5068131;28;20238;-81
2023/03/07 13:28:56;;;;;;;9.60;9.30;;;5.60;99.90;;;;;;5069814;28;20275;-82
2023/03/07 13:31:44;;;;;;;9.70;9.40;;;5.70;99.90;;;;;;5069703;28;20223;-81
2023/03/07 13:34:50;;;;;;;9.50;9.20;;;5.70;99.90;;;;;;5068611;28;20262;-83
2023/03/07 13:37:53;;;;;;;9.40;9.10;;;5.70;99.90;;;;;;5060322;28;20226;-82
2023/03/07 13:40:57;;;;;;;9.40;9.10;;;5.70;99.90;;;;;;5059521;28;20224;-84